createdAt,value
2024-02-04T00:00:16.590Z,63.07
2024-02-04T00:02:20.870Z,63.88
2024-02-04T00:04:29.070Z,63.35
2024-02-04T00:06:31.718Z,64.08
2024-02-04T00:08:34.736Z,63.94
2024-02-04T00:10:37.455Z,63.76
2024-02-04T00:12:41.179Z,63.53
2024-02-04T00:14:43.702Z,63.30
2024-02-04T00:16:46.215Z,63.80
2024-02-04T00:18:50.809Z,64.15
2024-02-04T00:20:54.884Z,63.78
2024-02-04T00:22:57.405Z,64.25
2024-02-04T00:25:07.491Z,63.54
2024-02-04T00:27:11.210Z,63.62
2024-02-04T00:29:16.572Z,63.83
2024-02-04T00:31:19.849Z,63.40
2024-02-04T00:33:23.356Z,63.38
2024-02-04T00:35:27.558Z,63.88
2024-02-04T00:37:30.050Z,63.38
2024-02-04T00:39:33.267Z,63.65
2024-02-04T00:41:37.026Z,63.84
2024-02-04T00:43:39.574Z,64.30
2024-02-04T00:45:42.083Z,63.77
2024-02-04T00:47:44.981Z,64.18
2024-02-04T00:49:48.437Z,63.87
2024-02-04T00:51:51.782Z,63.73
2024-02-04T00:53:54.557Z,64.68
2024-02-04T00:55:57.426Z,64.23
2024-02-04T00:58:02.189Z,64.38
2024-02-04T01:00:06.721Z,64.31
2024-02-04T01:02:09.273Z,64.36
2024-02-04T01:04:12.457Z,64.57
2024-02-04T01:06:15.585Z,64.85
2024-02-04T01:08:18.461Z,65.03
2024-02-04T01:10:21.782Z,64.83
2024-02-04T01:12:24.330Z,64.81
2024-02-04T01:14:26.808Z,64.60
2024-02-04T01:16:30.475Z,65.08
2024-02-04T01:18:34.896Z,65.58
2024-02-04T01:20:38.023Z,65.04
2024-02-04T01:22:40.482Z,64.94
2024-02-04T01:24:43.368Z,64.61
2024-02-04T01:26:46.404Z,65.09
2024-02-04T01:28:49.566Z,65.09
2024-02-04T01:30:52.045Z,65.01
2024-02-04T01:32:56.032Z,64.88
2024-02-04T01:34:59.329Z,65.02
2024-02-04T01:37:02.485Z,64.89
2024-02-04T01:39:06.296Z,65.42
2024-02-04T01:41:08.892Z,65.03
2024-02-04T01:43:12.371Z,64.76
2024-02-04T01:45:14.885Z,64.90
2024-02-04T01:47:17.754Z,65.08
2024-02-04T01:49:20.838Z,64.81
2024-02-04T01:51:24.291Z,65.44
2024-02-04T01:53:28.358Z,65.01
2024-02-04T01:55:30.871Z,65.37
2024-02-04T01:57:37.630Z,66.20
2024-02-04T01:59:41.775Z,65.97
2024-02-04T02:01:46.649Z,65.51
2024-02-04T02:03:51.786Z,65.65
2024-02-04T02:05:55.041Z,65.66
2024-02-04T02:07:57.712Z,65.25
2024-02-04T02:10:00.974Z,65.10
2024-02-04T02:12:37.156Z,65.21
2024-02-04T02:14:58.889Z,65.67
2024-02-04T02:17:07.865Z,65.61
2024-02-04T02:19:28.090Z,65.81
2024-02-04T02:21:52.282Z,65.95
2024-02-04T02:24:27.031Z,65.73
2024-02-04T02:26:30.912Z,66.00
2024-02-04T02:28:34.925Z,66.04
2024-02-04T02:30:38.401Z,66.80
2024-02-04T02:32:41.814Z,66.79
2024-02-04T02:34:44.661Z,66.51
2024-02-04T02:36:54.473Z,66.10
2024-02-04T02:39:11.761Z,66.68
2024-02-04T02:41:17.315Z,66.54
2024-02-04T02:43:21.071Z,67.03
2024-02-04T02:45:26.573Z,66.89
2024-02-04T02:47:31.184Z,65.96
2024-02-04T02:49:34.563Z,66.44
2024-02-04T02:51:37.134Z,66.55
2024-02-04T02:53:40.417Z,66.50
2024-02-04T02:55:43.319Z,66.35
2024-02-04T02:57:46.519Z,66.55
2024-02-04T02:59:48.998Z,66.60
2024-02-04T03:01:51.949Z,66.95
2024-02-04T03:03:54.471Z,66.95
2024-02-04T03:05:57.713Z,66.51
2024-02-04T03:08:00.617Z,66.64
2024-02-04T03:10:03.807Z,66.73
2024-02-04T03:12:06.706Z,66.84
2024-02-04T03:14:09.360Z,66.96
2024-02-04T03:16:13.276Z,66.89
2024-02-04T03:18:15.917Z,67.00
2024-02-04T03:20:18.510Z,67.39
2024-02-04T03:22:23.217Z,66.82
2024-02-04T03:24:26.190Z,67.13
2024-02-04T03:26:29.586Z,66.96
2024-02-04T03:28:33.169Z,67.28
2024-02-04T03:30:36.413Z,67.71
2024-02-04T03:32:39.679Z,67.40
2024-02-04T03:34:45.919Z,67.11
2024-02-04T03:36:49.018Z,67.05
2024-02-04T03:38:52.229Z,66.97
2024-02-04T03:40:56.335Z,67.30
2024-02-04T03:42:58.835Z,67.49
2024-02-04T03:45:03.451Z,67.31
2024-02-04T03:47:06.295Z,67.55
2024-02-04T03:49:10.346Z,67.11
2024-02-04T03:51:20.624Z,67.25
2024-02-04T03:53:24.602Z,67.11
2024-02-04T03:55:27.110Z,67.37
2024-02-04T03:57:29.610Z,67.19
2024-02-04T03:59:32.108Z,67.03
2024-02-04T04:01:35.619Z,67.07
2024-02-04T04:03:40.481Z,67.22
2024-02-04T04:05:43.071Z,66.77
2024-02-04T04:07:46.182Z,66.76
2024-02-04T04:09:49.223Z,67.04
2024-02-04T04:11:51.759Z,67.14
2024-02-04T04:13:55.331Z,67.34
2024-02-04T04:15:58.807Z,66.86
2024-02-04T04:18:02.237Z,66.97
2024-02-04T04:20:09.778Z,67.16
2024-02-04T04:22:12.315Z,67.46
2024-02-04T04:24:17.695Z,67.54
2024-02-04T04:26:20.329Z,67.27
2024-02-04T04:28:24.022Z,67.59
2024-02-04T04:30:26.907Z,67.45
2024-02-04T04:32:29.550Z,67.66
2024-02-04T04:34:32.795Z,68.22
2024-02-04T04:36:35.833Z,67.85
2024-02-04T04:38:38.303Z,67.70
2024-02-04T04:40:42.135Z,67.75
2024-02-04T04:42:44.659Z,67.73
2024-02-04T04:44:47.699Z,67.95
2024-02-04T04:46:52.316Z,67.74
2024-02-04T04:48:56.073Z,67.90
2024-02-04T04:50:59.307Z,68.47
2024-02-04T04:53:02.656Z,68.21
2024-02-04T04:55:05.895Z,68.17
2024-02-04T04:57:08.459Z,68.16
2024-02-04T04:59:11.336Z,68.69
2024-02-04T05:01:14.486Z,68.71
2024-02-04T05:03:17.227Z,68.53
2024-02-04T05:05:20.972Z,68.95
2024-02-04T05:07:24.232Z,68.84
2024-02-04T05:09:27.362Z,69.47
2024-02-04T05:11:30.304Z,69.45
2024-02-04T05:13:32.704Z,69.24
2024-02-04T05:15:38.474Z,69.61
2024-02-04T05:17:41.040Z,69.63
2024-02-04T05:19:44.347Z,69.90
2024-02-04T05:21:46.921Z,69.79
2024-02-04T05:23:49.347Z,69.22
2024-02-04T05:25:52.186Z,69.38
2024-02-04T05:27:55.243Z,69.54
2024-02-04T05:29:57.958Z,69.22
2024-02-04T05:32:01.462Z,69.41
2024-02-04T05:34:08.646Z,69.45
2024-02-04T05:36:11.205Z,69.69
2024-02-04T05:38:14.142Z,69.14
2024-02-04T05:40:19.044Z,69.60
2024-02-04T05:42:24.749Z,69.66
2024-02-04T05:44:27.264Z,70.09
2024-02-04T05:46:29.974Z,69.85
2024-02-04T05:48:32.792Z,70.26
2024-02-04T05:50:35.546Z,69.59
2024-02-04T05:52:38.481Z,69.65
2024-02-04T05:54:41.396Z,69.94
2024-02-04T05:56:44.595Z,70.21
2024-02-04T05:58:47.335Z,70.24
2024-02-04T06:00:50.029Z,69.90
2024-02-04T06:02:53.826Z,69.88
2024-02-04T06:04:56.427Z,69.97
2024-02-04T06:06:59.893Z,69.86
2024-02-04T06:09:03.314Z,70.00
2024-02-04T06:11:05.925Z,70.11
2024-02-04T06:13:08.741Z,69.91
2024-02-04T06:15:16.253Z,70.37
2024-02-04T06:17:19.116Z,70.55
2024-02-04T06:19:21.639Z,70.43
2024-02-04T06:21:24.281Z,69.86
2024-02-04T06:23:26.742Z,70.47
2024-02-04T06:25:29.415Z,70.48
2024-02-04T06:27:33.258Z,70.20
2024-02-04T06:29:36.153Z,70.51
2024-02-04T06:31:38.659Z,70.48
2024-02-04T06:33:41.752Z,70.11
2024-02-04T06:35:45.159Z,70.35
2024-02-04T06:37:48.176Z,69.84
2024-02-04T06:39:50.669Z,70.14
2024-02-04T06:41:53.256Z,70.31
2024-02-04T06:43:56.482Z,70.38
2024-02-04T06:45:59.623Z,70.69
2024-02-04T06:48:02.939Z,70.48
2024-02-04T06:50:06.969Z,70.50
2024-02-04T06:52:10.395Z,70.65
2024-02-04T06:54:13.657Z,70.59
2024-02-04T06:56:16.940Z,70.20
2024-02-04T06:58:19.465Z,70.57
2024-02-04T07:00:23.046Z,70.49
2024-02-04T07:02:25.552Z,70.47
2024-02-04T07:04:28.572Z,70.57
2024-02-04T07:06:31.948Z,70.58
2024-02-04T07:08:34.601Z,70.76
2024-02-04T07:10:37.841Z,70.45
2024-02-04T07:12:41.009Z,70.54
2024-02-04T07:14:43.474Z,70.23
2024-02-04T07:16:46.021Z,70.70
2024-02-04T07:18:49.089Z,71.00
2024-02-04T07:20:55.118Z,70.80
2024-02-04T07:22:57.572Z,70.50
2024-02-04T07:25:00.484Z,70.89
2024-02-04T07:27:03.655Z,70.95
2024-02-04T07:29:06.477Z,71.02
2024-02-04T07:31:10.018Z,70.66
2024-02-04T07:33:13.304Z,70.47
2024-02-04T07:35:15.881Z,70.95
2024-02-04T07:37:19.514Z,71.01
2024-02-04T07:39:21.996Z,70.58
2024-02-04T07:41:24.785Z,70.47
2024-02-04T07:43:27.474Z,70.94
2024-02-04T07:45:29.986Z,71.37
2024-02-04T07:47:32.980Z,71.23
2024-02-04T07:49:36.225Z,71.27
2024-02-04T07:51:39.987Z,70.96
2024-02-04T07:53:43.011Z,70.88
2024-02-04T07:55:45.561Z,71.03
2024-02-04T07:57:48.511Z,70.70
2024-02-04T07:59:51.048Z,71.27
2024-02-04T08:01:54.032Z,71.12
2024-02-04T08:03:56.652Z,71.23
2024-02-04T08:05:59.129Z,71.20
2024-02-04T08:08:02.401Z,71.70
2024-02-04T08:10:06.127Z,71.29
2024-02-04T08:12:09.589Z,70.85
2024-02-04T08:14:12.082Z,71.31
2024-02-04T08:16:14.917Z,71.28
2024-02-04T08:18:17.705Z,71.14
2024-02-04T08:20:21.077Z,71.11
2024-02-04T08:22:25.188Z,71.19
2024-02-04T08:24:27.746Z,70.76
2024-02-04T08:26:30.264Z,71.01
2024-02-04T08:28:34.076Z,71.33
2024-02-04T08:30:36.691Z,71.10
2024-02-04T08:32:40.408Z,71.19
2024-02-04T08:34:43.485Z,71.33
2024-02-04T08:36:46.047Z,71.41
2024-02-04T08:38:48.586Z,71.62
2024-02-04T08:40:51.369Z,71.40
2024-02-04T08:42:53.913Z,71.11
2024-02-04T08:44:56.362Z,71.10
2024-02-04T08:46:59.207Z,71.29
2024-02-04T08:49:02.255Z,71.33
2024-02-04T08:51:04.979Z,71.63
2024-02-04T08:53:08.279Z,70.96
2024-02-04T08:55:10.911Z,71.39
2024-02-04T08:57:13.982Z,70.93
2024-02-04T08:59:17.282Z,70.87
2024-02-04T09:01:22.017Z,70.84
2024-02-04T09:03:24.815Z,70.92
2024-02-04T09:05:27.310Z,70.95
2024-02-04T09:07:31.753Z,71.00
2024-02-04T09:09:36.189Z,70.90
2024-02-04T09:11:38.727Z,70.97
2024-02-04T09:13:41.412Z,70.77
2024-02-04T09:15:44.482Z,70.61
2024-02-04T09:17:47.938Z,71.25
2024-02-04T09:19:50.923Z,71.20
2024-02-04T09:21:53.607Z,71.21
2024-02-04T09:23:56.919Z,70.74
2024-02-04T09:25:59.528Z,71.03
2024-02-04T09:28:02.864Z,70.39
2024-02-04T09:30:07.798Z,71.00
2024-02-04T09:32:11.150Z,71.12
2024-02-04T09:34:14.884Z,71.24
2024-02-04T09:36:19.084Z,71.05
2024-02-04T09:38:23.276Z,70.71
2024-02-04T09:40:26.346Z,70.81
2024-02-04T09:42:29.724Z,71.25
2024-02-04T09:44:33.965Z,71.50
2024-02-04T09:46:37.114Z,71.91
2024-02-04T09:48:41.574Z,71.03
2024-02-04T09:50:45.657Z,72.04
2024-02-04T09:52:54.462Z,71.72
2024-02-04T09:55:07.962Z,71.63
2024-02-04T09:57:11.257Z,71.43
2024-02-04T09:59:14.177Z,72.08
2024-02-04T10:01:17.554Z,71.90
2024-02-04T10:03:20.237Z,71.49
2024-02-04T10:05:23.818Z,72.30
2024-02-04T10:07:27.107Z,72.02
2024-02-04T10:09:31.346Z,72.78
2024-02-04T10:11:34.020Z,72.38
2024-02-04T10:13:46.765Z,72.34
2024-02-04T10:15:50.856Z,72.33
2024-02-04T10:17:55.939Z,72.21
2024-02-04T10:19:59.042Z,72.70
2024-02-04T10:22:06.442Z,72.48
2024-02-04T10:24:09.784Z,72.66
2024-02-04T10:26:12.830Z,73.54
2024-02-04T10:28:18.376Z,73.43
2024-02-04T10:30:24.309Z,72.35
2024-02-04T10:32:28.095Z,73.14
2024-02-04T10:34:31.653Z,72.85
2024-02-04T10:36:34.216Z,72.95
2024-02-04T10:38:37.122Z,73.32
2024-02-04T10:40:39.552Z,73.26
2024-02-04T10:42:44.900Z,73.47
2024-02-04T10:44:50.070Z,73.63
2024-02-04T10:46:53.533Z,72.77
2024-02-04T10:49:09.760Z,72.88
2024-02-04T10:51:18.647Z,73.14
2024-02-04T10:53:24.058Z,72.85
2024-02-04T10:55:32.970Z,73.48
2024-02-04T10:57:37.424Z,72.80
2024-02-04T10:59:40.832Z,73.11
2024-02-04T11:01:43.639Z,73.66
2024-02-04T11:03:48.691Z,73.21
2024-02-04T11:05:53.657Z,73.34
2024-02-04T11:07:57.428Z,73.57
2024-02-04T11:10:01.456Z,73.36
2024-02-04T11:12:09.696Z,73.69
2024-02-04T11:14:15.665Z,73.89
2024-02-04T11:16:47.762Z,73.85
2024-02-04T11:19:00.222Z,74.88
2024-02-04T11:21:14.703Z,74.19
2024-02-04T11:23:39.834Z,74.54
2024-02-04T11:26:09.300Z,74.78
2024-02-04T11:28:17.565Z,74.85
2024-02-04T11:30:21.566Z,75.42
2024-02-04T11:32:27.522Z,74.97
2024-02-04T11:34:31.157Z,75.51
2024-02-04T11:36:43.751Z,75.52
2024-02-04T11:38:51.587Z,75.94
2024-02-04T11:40:54.518Z,75.73
2024-02-04T11:43:24.815Z,75.26
2024-02-04T11:45:28.424Z,75.86
2024-02-04T11:47:31.831Z,75.89
2024-02-04T11:49:35.466Z,75.80
2024-02-04T11:51:40.248Z,76.46
2024-02-04T11:53:43.303Z,76.11
2024-02-04T11:55:47.940Z,75.93
2024-02-04T11:57:50.514Z,76.45
2024-02-04T11:59:56.200Z,76.12
2024-02-04T12:02:00.779Z,76.42
2024-02-04T12:04:18.969Z,76.66
2024-02-04T12:06:21.725Z,77.06
2024-02-04T12:08:25.609Z,76.74
2024-02-04T12:10:28.766Z,76.79
2024-02-04T12:12:33.759Z,76.51
2024-02-04T12:14:37.512Z,77.19
2024-02-04T12:16:40.142Z,77.40
2024-02-04T12:18:52.823Z,77.12
2024-02-04T12:20:55.976Z,77.17
2024-02-04T12:22:58.638Z,76.99
2024-02-04T12:25:01.672Z,77.24
2024-02-04T12:27:06.220Z,77.11
2024-02-04T12:29:09.928Z,77.26
2024-02-04T12:31:20.605Z,77.49
2024-02-04T12:33:24.142Z,77.23
2024-02-04T12:35:30.487Z,76.97
2024-02-04T12:37:35.624Z,77.17
2024-02-04T12:39:38.889Z,76.89
2024-02-04T12:41:41.833Z,76.96
2024-02-04T12:43:49.052Z,77.11
2024-02-04T12:45:51.585Z,77.50
2024-02-04T12:47:55.942Z,76.89
2024-02-04T12:50:02.835Z,76.84
2024-02-04T12:52:09.793Z,77.19
2024-02-04T12:54:15.030Z,77.46
2024-02-04T12:56:19.090Z,77.37
2024-02-04T12:58:21.572Z,77.80
2024-02-04T13:00:24.110Z,77.67
2024-02-04T13:02:27.428Z,77.56
2024-02-04T13:04:36.816Z,76.96
2024-02-04T13:06:41.011Z,76.97
2024-02-04T13:08:43.521Z,77.54
2024-02-04T13:10:55.009Z,77.35
2024-02-04T13:13:04.475Z,77.35
2024-02-04T13:15:07.893Z,77.35
2024-02-04T13:17:11.302Z,77.30
2024-02-04T13:19:14.459Z,77.00
2024-02-04T13:21:21.449Z,77.20
2024-02-04T13:23:24.283Z,76.92
2024-02-04T13:25:28.107Z,76.91
2024-02-04T13:27:33.351Z,76.89
2024-02-04T13:29:39.512Z,76.92
2024-02-04T13:31:45.408Z,76.73
2024-02-04T13:33:49.170Z,76.86
2024-02-04T13:35:52.518Z,76.43
2024-02-04T13:37:56.926Z,76.49
2024-02-04T13:40:00.700Z,76.28
2024-02-04T13:42:04.212Z,76.41
2024-02-04T13:44:09.381Z,76.11
2024-02-04T13:46:12.081Z,76.56
2024-02-04T13:48:14.595Z,76.08
2024-02-04T13:50:17.883Z,76.35
2024-02-04T13:52:20.430Z,75.85
2024-02-04T13:54:23.630Z,76.27
2024-02-04T13:56:26.658Z,75.47
2024-02-04T13:58:29.656Z,75.50
2024-02-04T14:00:32.646Z,75.23
2024-02-04T14:02:36.237Z,74.97
2024-02-04T14:04:39.195Z,75.35
2024-02-04T14:06:43.065Z,75.36
2024-02-04T14:08:46.553Z,75.00
2024-02-04T14:10:49.439Z,75.18
2024-02-04T14:12:53.716Z,75.37
2024-02-04T14:14:57.408Z,74.89
2024-02-04T14:17:00.212Z,75.05
2024-02-04T14:19:02.707Z,75.21
2024-02-04T14:21:07.659Z,74.87
2024-02-04T14:23:11.171Z,74.98
2024-02-04T14:25:14.133Z,74.89
2024-02-04T14:27:17.349Z,74.83
2024-02-04T14:29:21.918Z,74.79
2024-02-04T14:31:26.158Z,74.09
2024-02-04T14:33:28.650Z,74.33
2024-02-04T14:35:32.827Z,74.30
2024-02-04T14:37:36.708Z,73.85
2024-02-04T14:39:39.369Z,74.85
2024-02-04T14:41:41.835Z,74.24
2024-02-04T14:43:47.210Z,74.48
2024-02-04T14:45:50.062Z,74.27
2024-02-04T14:47:53.065Z,74.39
2024-02-04T14:49:56.854Z,74.69
2024-02-04T14:52:00.166Z,74.30
2024-02-04T14:54:03.411Z,74.11
2024-02-04T14:56:06.055Z,74.86
2024-02-04T14:58:08.740Z,74.40
2024-02-04T15:00:12.477Z,74.85
2024-02-04T15:02:16.120Z,73.78
2024-02-04T15:04:18.904Z,74.02
2024-02-04T15:06:21.862Z,73.17
2024-02-04T15:08:24.769Z,74.36
2024-02-04T15:10:27.596Z,74.76
2024-02-04T15:12:30.632Z,73.93
2024-02-04T15:14:34.069Z,74.08
2024-02-04T15:16:41.556Z,73.64
2024-02-04T15:18:44.537Z,73.33
2024-02-04T15:20:48.021Z,73.03
2024-02-04T15:22:50.755Z,73.31
2024-02-04T15:24:53.527Z,74.23
2024-02-04T15:26:58.943Z,73.54
2024-02-04T15:29:05.764Z,73.29
2024-02-04T15:31:10.244Z,73.60
2024-02-04T15:33:14.253Z,73.14
2024-02-04T15:35:17.590Z,73.19
2024-02-04T15:37:21.253Z,73.16
2024-02-04T15:39:24.547Z,73.25
2024-02-04T15:41:27.741Z,73.46
2024-02-04T15:43:30.990Z,73.05
2024-02-04T15:45:33.523Z,73.30
2024-02-04T15:47:46.245Z,72.58
2024-02-04T15:49:51.819Z,72.77
2024-02-04T15:51:55.015Z,72.14
2024-02-04T15:53:57.793Z,73.40
2024-02-04T15:56:02.711Z,73.25
2024-02-04T15:58:09.418Z,72.73
2024-02-04T16:00:19.467Z,72.94
2024-02-04T16:02:22.795Z,72.90
2024-02-04T16:04:27.848Z,73.55
2024-02-04T16:06:30.776Z,73.81
2024-02-04T16:08:33.516Z,72.10
2024-02-04T16:10:36.633Z,72.68
2024-02-04T16:12:39.445Z,72.50
2024-02-04T16:14:46.895Z,72.64
2024-02-04T16:16:52.825Z,72.61
2024-02-04T16:18:56.448Z,72.16
2024-02-04T16:21:00.240Z,72.10
2024-02-04T16:23:03.440Z,71.77
2024-02-04T16:25:08.536Z,71.85
2024-02-04T16:27:13.000Z,71.13
2024-02-04T16:29:15.576Z,71.18
2024-02-04T16:31:18.080Z,71.17
2024-02-04T16:33:21.088Z,71.37
2024-02-04T16:35:24.772Z,70.77
2024-02-04T16:37:28.382Z,70.73
2024-02-04T16:39:31.053Z,70.57
2024-02-04T16:41:33.632Z,70.13
2024-02-04T16:43:36.129Z,70.93
2024-02-04T16:45:39.081Z,70.35
2024-02-04T16:47:41.921Z,70.76
2024-02-04T16:49:44.616Z,70.99
2024-02-04T16:51:47.142Z,69.90
2024-02-04T16:53:50.172Z,70.20
2024-02-04T16:55:54.268Z,70.24
2024-02-04T16:57:57.180Z,70.00
2024-02-04T17:00:01.317Z,69.47
2024-02-04T17:02:06.092Z,70.14
2024-02-04T17:04:09.106Z,70.10
2024-02-04T17:06:12.988Z,70.10
2024-02-04T17:08:16.680Z,70.13
2024-02-04T17:10:19.442Z,70.00
2024-02-04T17:12:24.104Z,69.74
2024-02-04T17:14:27.754Z,69.11
2024-02-04T17:16:30.824Z,69.51
2024-02-04T17:18:48.562Z,68.77
2024-02-04T17:20:57.560Z,69.09
2024-02-04T17:23:03.331Z,68.71
2024-02-04T17:25:11.865Z,68.72
2024-02-04T17:27:15.992Z,68.80
2024-02-04T17:29:19.442Z,68.67
2024-02-04T17:31:23.285Z,68.28
2024-02-04T17:33:27.287Z,68.08
2024-02-04T17:35:31.721Z,68.38
2024-02-04T17:37:35.555Z,68.01
2024-02-04T17:39:42.070Z,68.55
2024-02-04T17:41:44.530Z,68.33
2024-02-04T17:43:47.372Z,67.89
2024-02-04T17:45:50.552Z,67.78
2024-02-04T17:47:53.085Z,67.67
2024-02-04T17:49:57.342Z,67.43
2024-02-04T17:52:00.137Z,68.00
2024-02-04T17:54:02.745Z,67.17
2024-02-04T17:56:06.088Z,67.49
2024-02-04T17:58:09.617Z,67.96
2024-02-04T18:00:13.313Z,68.21
2024-02-04T18:02:18.424Z,68.49
2024-02-04T18:04:26.308Z,68.11
2024-02-04T18:06:29.439Z,67.74
2024-02-04T18:08:31.883Z,68.11
2024-02-04T18:10:34.803Z,67.46
2024-02-04T18:12:37.765Z,66.76
2024-02-04T18:14:41.647Z,67.10
2024-02-04T18:16:44.780Z,67.05
2024-02-04T18:18:47.368Z,66.50
2024-02-04T18:20:50.710Z,66.80
2024-02-04T18:22:53.245Z,66.87
2024-02-04T18:24:57.173Z,66.91
2024-02-04T18:27:00.085Z,66.92
2024-02-04T18:29:05.247Z,66.54
2024-02-04T18:31:07.659Z,65.99
2024-02-04T18:33:12.106Z,66.25
2024-02-04T18:35:15.789Z,65.66
2024-02-04T18:37:19.201Z,65.45
2024-02-04T18:39:22.389Z,65.62
2024-02-04T18:41:26.268Z,65.97
2024-02-04T18:43:29.254Z,65.97
2024-02-04T18:45:32.037Z,66.20
2024-02-04T18:47:35.023Z,65.86
2024-02-04T18:49:39.120Z,66.18
2024-02-04T18:51:48.408Z,66.09
2024-02-04T18:53:51.400Z,66.10
2024-02-04T18:55:55.257Z,66.11
2024-02-04T18:57:57.742Z,66.07
2024-02-04T19:00:01.044Z,66.30
2024-02-04T19:02:03.679Z,65.46
2024-02-04T19:04:07.325Z,65.82
2024-02-04T19:06:10.673Z,65.51
2024-02-04T19:08:14.504Z,65.23
2024-02-04T19:10:17.107Z,65.46
2024-02-04T19:12:20.354Z,65.69
2024-02-04T19:14:25.019Z,65.68
2024-02-04T19:16:28.238Z,65.62
2024-02-04T19:18:31.661Z,65.61
2024-02-04T19:20:34.507Z,65.63
2024-02-04T19:22:43.146Z,65.46
2024-02-04T19:24:46.826Z,65.08
2024-02-04T19:26:50.522Z,65.08
2024-02-04T19:28:53.777Z,64.97
2024-02-04T19:30:57.040Z,65.02
2024-02-04T19:32:59.540Z,65.43
2024-02-04T19:35:02.656Z,65.39
2024-02-04T19:37:07.258Z,65.26
2024-02-04T19:39:11.318Z,65.28
2024-02-04T19:41:14.752Z,65.00
2024-02-04T19:43:17.722Z,64.99
2024-02-04T19:45:21.508Z,65.01
2024-02-04T19:47:24.784Z,64.89
2024-02-04T19:49:30.803Z,64.71
2024-02-04T19:51:33.796Z,64.41
2024-02-04T19:53:37.170Z,64.53
2024-02-04T19:55:39.697Z,64.39
2024-02-04T19:57:42.952Z,63.80
2024-02-04T19:59:48.818Z,64.36
2024-02-04T20:01:55.781Z,64.29
2024-02-04T20:03:58.908Z,63.94
2024-02-04T20:06:01.894Z,64.41
2024-02-04T20:08:05.364Z,64.43
2024-02-04T20:10:08.670Z,64.23
2024-02-04T20:12:11.543Z,64.42
2024-02-04T20:14:14.080Z,64.31
2024-02-04T20:16:16.619Z,64.27
2024-02-04T20:18:19.840Z,63.84
2024-02-04T20:20:23.963Z,64.49
2024-02-04T20:22:27.253Z,64.08
2024-02-04T20:24:32.947Z,64.66
2024-02-04T20:26:40.131Z,64.47
2024-02-04T20:28:43.030Z,64.86
2024-02-04T20:30:46.343Z,64.39
2024-02-04T20:32:48.898Z,64.69
2024-02-04T20:34:52.522Z,64.90
2024-02-04T20:36:54.971Z,64.79
2024-02-04T20:38:58.027Z,65.03
2024-02-04T20:41:00.940Z,65.03
2024-02-04T20:43:04.518Z,64.50
2024-02-04T20:45:07.638Z,64.48
2024-02-04T20:47:10.872Z,64.49
2024-02-04T20:49:14.153Z,64.12
2024-02-04T20:51:18.314Z,64.37
2024-02-04T20:53:21.315Z,63.89
2024-02-04T20:55:26.723Z,63.76
2024-02-04T20:57:29.330Z,63.83
2024-02-04T20:59:32.639Z,64.11
2024-02-04T21:01:36.006Z,64.17
2024-02-04T21:03:39.261Z,64.49
2024-02-04T21:05:42.749Z,64.58
2024-02-04T21:07:45.414Z,64.52
2024-02-04T21:09:49.896Z,65.27
2024-02-04T21:11:53.986Z,64.98
2024-02-04T21:13:56.518Z,65.18
2024-02-04T21:15:59.335Z,65.22
2024-02-04T21:18:02.754Z,65.41
2024-02-04T21:20:09.307Z,65.17
2024-02-04T21:22:12.229Z,65.54
2024-02-04T21:24:14.912Z,65.18
2024-02-04T21:26:17.628Z,65.91
2024-02-04T21:28:22.153Z,65.74
2024-02-04T21:30:25.641Z,65.35
2024-02-04T21:32:29.214Z,66.04
2024-02-04T21:34:31.819Z,65.98
2024-02-04T21:36:35.523Z,65.51
2024-02-04T21:38:41.231Z,66.09
2024-02-04T21:40:44.943Z,66.08
2024-02-04T21:42:47.382Z,66.49
2024-02-04T21:44:50.765Z,66.97
2024-02-04T21:46:53.972Z,66.41
2024-02-04T21:48:57.500Z,66.35
2024-02-04T21:51:00.438Z,66.76
2024-02-04T21:53:07.503Z,66.60
2024-02-04T21:55:10.557Z,66.42
2024-02-04T21:57:23.652Z,66.24
2024-02-04T21:59:26.951Z,66.11
2024-02-04T22:01:30.407Z,66.45
2024-02-04T22:03:33.464Z,66.30
2024-02-04T22:05:38.427Z,66.28
2024-02-04T22:07:41.140Z,66.48
2024-02-04T22:09:44.483Z,66.67
2024-02-04T22:11:46.980Z,66.76
2024-02-04T22:13:49.416Z,66.74
2024-02-04T22:15:52.649Z,66.80
2024-02-04T22:17:58.227Z,66.82
2024-02-04T22:20:06.523Z,66.85
2024-02-04T22:22:09.511Z,66.88
2024-02-04T22:24:12.378Z,66.84
2024-02-04T22:26:15.819Z,67.54
2024-02-04T22:28:19.344Z,67.13
2024-02-04T22:30:23.292Z,66.91
2024-02-04T22:32:27.568Z,67.03
2024-02-04T22:34:30.825Z,67.26
2024-02-04T22:36:36.574Z,67.15
2024-02-04T22:38:39.009Z,66.95
2024-02-04T22:40:42.049Z,67.19
2024-02-04T22:42:44.656Z,67.14
2024-02-04T22:44:47.191Z,67.41
2024-02-04T22:46:49.772Z,67.38
2024-02-04T22:48:52.690Z,67.38
2024-02-04T22:50:55.858Z,68.18
2024-02-04T22:52:58.259Z,67.79
2024-02-04T22:55:01.491Z,68.05
2024-02-04T22:57:04.418Z,67.76
2024-02-04T22:59:07.049Z,68.02
2024-02-04T23:01:09.772Z,67.60
2024-02-04T23:03:12.715Z,68.28
2024-02-04T23:05:15.845Z,68.17
2024-02-04T23:07:27.708Z,68.41
2024-02-04T23:09:39.233Z,68.59
2024-02-04T23:11:43.851Z,68.11
2024-02-04T23:13:48.454Z,68.60
2024-02-04T23:15:51.287Z,68.00
2024-02-04T23:17:54.888Z,68.28
2024-02-04T23:19:58.000Z,68.27
2024-02-04T23:22:01.230Z,68.64
2024-02-04T23:24:04.380Z,68.61
2024-02-04T23:26:08.150Z,68.63
2024-02-04T23:28:11.611Z,68.87
2024-02-04T23:30:15.147Z,69.07
2024-02-04T23:32:18.276Z,69.28
2024-02-04T23:34:21.390Z,69.49
2024-02-04T23:36:24.641Z,69.30
2024-02-04T23:38:27.803Z,69.54
2024-02-04T23:40:30.208Z,68.80
2024-02-04T23:42:32.877Z,68.93
2024-02-04T23:44:35.889Z,69.08
2024-02-04T23:46:38.714Z,68.84
2024-02-04T23:48:42.919Z,69.00
2024-02-04T23:50:48.093Z,68.88
2024-02-04T23:52:50.933Z,68.84
2024-02-04T23:56:57.190Z,69.16
2024-02-04T23:59:00.330Z,69.22
